createdAt,value
2023-05-13T00:04:24.111Z,3.35
2023-05-13T00:10:25.965Z,3.90
2023-05-13T00:16:28.879Z,3.47
2023-05-13T00:22:30.720Z,3.50
2023-05-13T00:28:32.582Z,3.50
2023-05-13T00:34:34.445Z,3.75
2023-05-13T00:40:39.756Z,3.72
2023-05-13T00:46:42.430Z,3.58
2023-05-13T00:52:44.529Z,3.70
2023-05-13T00:58:46.450Z,3.60
2023-05-13T01:05:03.139Z,3.80
2023-05-13T01:11:16.107Z,3.67
2023-05-13T01:17:32.735Z,4.05
2023-05-13T01:23:34.600Z,4.20
2023-05-13T01:29:37.792Z,3.70
2023-05-13T01:35:39.713Z,3.78
2023-05-13T01:41:41.560Z,3.90
2023-05-13T01:47:43.322Z,3.47
2023-05-13T01:53:46.332Z,4.13
2023-05-13T01:59:48.096Z,4.18
2023-05-13T02:05:50.030Z,4.60
2023-05-13T02:11:51.958Z,4.13
2023-05-13T02:17:54.937Z,4.13
2023-05-13T02:23:56.887Z,4.45
2023-05-13T02:29:58.680Z,4.53
2023-05-13T02:36:00.472Z,4.93
2023-05-13T02:42:03.061Z,4.32
2023-05-13T02:48:04.984Z,4.63
2023-05-13T02:54:07.313Z,4.32
2023-05-13T03:00:09.786Z,4.60
2023-05-13T03:06:11.702Z,4.55
2023-05-13T03:12:13.628Z,4.70
2023-05-13T03:18:15.523Z,4.25
2023-05-13T03:24:17.359Z,4.75
2023-05-13T03:30:22.292Z,5.25
2023-05-13T03:36:24.483Z,4.13
2023-05-13T03:42:26.620Z,4.63
2023-05-13T03:48:28.455Z,4.25
2023-05-13T03:54:30.256Z,4.50
2023-05-13T04:00:32.032Z,4.30
2023-05-13T04:06:33.973Z,4.55
2023-05-13T04:12:35.820Z,4.63
2023-05-13T04:18:37.729Z,4.10
2023-05-13T04:24:39.594Z,4.20
2023-05-13T04:30:41.482Z,4.57
2023-05-13T04:36:43.379Z,4.55
2023-05-13T04:42:45.369Z,4.47
2023-05-13T04:48:48.678Z,4.55
2023-05-13T04:54:51.147Z,3.70
2023-05-13T05:00:52.956Z,3.97
2023-05-13T05:06:54.822Z,4.00
2023-05-13T05:12:58.149Z,3.92
2023-05-13T05:18:59.971Z,4.00
2023-05-13T05:25:01.910Z,3.65
2023-05-13T05:31:06.462Z,3.60
2023-05-13T05:37:08.414Z,4.10
2023-05-13T05:43:13.840Z,3.65
2023-05-13T05:49:15.785Z,3.90
2023-05-13T05:55:17.807Z,3.97
2023-05-13T06:01:19.957Z,4.07
2023-05-13T06:07:21.932Z,4.15
2023-05-13T06:13:23.968Z,4.00
2023-05-13T06:19:25.760Z,4.18
2023-05-13T06:25:27.564Z,4.55
2023-05-13T06:31:29.361Z,4.03
2023-05-13T06:37:31.163Z,3.60
2023-05-13T06:43:34.290Z,4.53
2023-05-13T06:49:36.205Z,4.50
2023-05-13T06:55:41.574Z,4.45
2023-05-13T07:01:43.673Z,3.53
2023-05-13T07:07:46.048Z,4.00
2023-05-13T07:13:47.917Z,3.85
2023-05-13T07:19:49.862Z,3.63
2023-05-13T07:25:52.511Z,4.00
2023-05-13T07:31:54.355Z,4.43
2023-05-13T07:37:56.309Z,4.00
2023-05-13T07:43:58.123Z,4.18
2023-05-13T07:50:00.417Z,4.47
2023-05-13T07:56:02.578Z,3.97
2023-05-13T08:02:04.444Z,3.70
2023-05-13T08:08:06.547Z,3.60
2023-05-13T08:14:08.400Z,4.00
2023-05-13T08:20:11.565Z,3.83
2023-05-13T08:26:13.818Z,3.43
2023-05-13T08:32:15.665Z,3.88
2023-05-13T08:38:17.533Z,3.65
2023-05-13T08:44:22.632Z,3.80
2023-05-13T08:50:25.689Z,4.20
2023-05-13T08:56:29.170Z,3.60
2023-05-13T09:02:32.050Z,3.58
2023-05-13T09:08:34.355Z,3.13
2023-05-13T09:14:38.580Z,3.60
2023-05-13T09:20:42.684Z,3.55
2023-05-13T09:26:45.704Z,3.60
2023-05-13T09:33:16.742Z,3.53
2023-05-13T09:39:18.605Z,4.03
2023-05-13T09:45:20.784Z,3.53
2023-05-13T09:51:27.284Z,3.53
2023-05-13T09:57:29.179Z,3.28
2023-05-13T10:03:31.865Z,3.33
2023-05-13T10:09:36.594Z,3.20
2023-05-13T10:15:48.506Z,3.67
2023-05-13T10:21:54.274Z,3.25
2023-05-13T10:27:57.900Z,3.80
2023-05-13T10:33:59.766Z,3.33
2023-05-13T10:40:42.107Z,3.85
2023-05-13T10:46:43.957Z,4.25
2023-05-13T10:52:48.702Z,3.40
2023-05-13T10:59:03.668Z,3.60
2023-05-13T11:05:05.970Z,3.80
2023-05-13T11:11:17.497Z,3.83
2023-05-13T11:17:20.802Z,3.70
2023-05-13T11:29:36.060Z,3.38
2023-05-13T11:35:38.027Z,2.95
2023-05-13T11:41:42.554Z,2.80
2023-05-13T11:47:45.218Z,3.38
2023-05-13T11:53:47.038Z,2.80
2023-05-13T11:59:52.698Z,2.92
2023-05-13T12:06:06.564Z,2.60
2023-05-13T12:12:08.977Z,3.30
2023-05-13T12:18:10.955Z,2.80
2023-05-13T12:24:20.376Z,2.92
2023-05-13T12:30:22.149Z,3.00
2023-05-13T12:36:36.318Z,3.38
2023-05-13T12:42:38.278Z,3.60
2023-05-13T12:48:40.073Z,3.45
2023-05-13T12:54:41.917Z,3.40
2023-05-13T13:00:43.826Z,3.33
2023-05-13T13:06:45.714Z,3.10
2023-05-13T13:12:47.732Z,2.90
2023-05-13T13:18:51.826Z,3.10
2023-05-13T13:24:55.032Z,2.80
2023-05-13T13:30:56.884Z,2.58
2023-05-13T13:36:58.704Z,2.80
2023-05-13T13:43:00.461Z,2.47
2023-05-13T13:49:05.642Z,3.13
2023-05-13T13:55:16.105Z,3.40
2023-05-13T14:01:19.748Z,2.63
2023-05-13T14:07:21.797Z,2.40
2023-05-13T14:13:23.807Z,2.30
2023-05-13T14:19:26.332Z,2.55
2023-05-13T14:25:28.306Z,2.40
2023-05-13T14:31:30.619Z,2.17
2023-05-13T14:37:32.515Z,2.50
2023-05-13T14:43:34.274Z,2.40
2023-05-13T14:49:36.416Z,2.30
2023-05-13T14:55:38.371Z,2.65
2023-05-13T15:01:40.371Z,2.75
2023-05-13T15:07:42.217Z,2.42
2023-05-13T15:13:44.040Z,2.42
2023-05-13T15:19:46.582Z,2.50
2023-05-13T15:25:48.697Z,2.42
2023-05-13T15:31:51.152Z,2.60
2023-05-13T15:37:53.044Z,2.72
2023-05-13T15:43:54.922Z,2.28
2023-05-13T15:49:56.644Z,2.40
2023-05-13T15:55:58.403Z,2.40
2023-05-13T16:02:00.681Z,2.67
2023-05-13T16:08:02.456Z,3.00
2023-05-13T16:14:04.752Z,2.20
2023-05-13T16:20:08.990Z,2.53
2023-05-13T16:26:12.715Z,2.08
2023-05-13T16:32:14.513Z,2.33
2023-05-13T16:38:16.942Z,2.10
2023-05-13T16:44:18.837Z,2.33
2023-05-13T16:50:21.041Z,2.15
2023-05-13T16:56:23.053Z,2.15
2023-05-13T17:02:25.157Z,2.25
2023-05-13T17:08:26.978Z,2.05
2023-05-13T17:14:28.835Z,1.80
2023-05-13T17:20:30.689Z,1.67
2023-05-13T17:26:33.051Z,1.70
2023-05-13T17:32:35.732Z,1.50
2023-05-13T17:38:38.192Z,1.47
2023-05-13T17:44:39.985Z,1.88
2023-05-13T17:50:42.196Z,1.60
2023-05-13T17:56:43.958Z,1.67
2023-05-13T18:02:45.784Z,1.73
2023-05-13T18:08:47.627Z,1.85
2023-05-13T18:14:49.426Z,1.73
2023-05-13T18:20:51.332Z,1.75
2023-05-13T18:26:53.160Z,1.90
2023-05-13T18:32:55.137Z,1.80
2023-05-13T18:38:57.014Z,1.80
2023-05-13T18:44:58.828Z,1.70
2023-05-13T18:51:00.697Z,1.90
2023-05-13T18:57:02.553Z,1.77
2023-05-13T19:03:04.645Z,2.17
2023-05-13T19:09:06.994Z,1.95
2023-05-13T19:15:09.177Z,2.30
2023-05-13T19:21:19.550Z,1.90
2023-05-13T19:27:29.950Z,1.90
2023-05-13T19:33:43.488Z,2.15
2023-05-13T19:39:49.926Z,5.45
2023-05-13T19:45:52.950Z,4.10
2023-05-13T19:51:56.547Z,3.87
2023-05-13T19:57:59.161Z,2.53
2023-05-13T20:04:02.926Z,2.40
2023-05-13T20:10:07.279Z,2.78
2023-05-13T20:16:10.452Z,2.95
2023-05-13T20:22:13.353Z,2.40
2023-05-13T20:28:16.808Z,2.47
2023-05-13T20:34:19.662Z,2.77
2023-05-13T20:40:24.988Z,2.38
2023-05-13T20:46:28.951Z,2.08
2023-05-13T20:52:32.387Z,2.03
2023-05-13T20:58:35.045Z,2.27
2023-05-13T21:04:37.878Z,2.40
2023-05-13T21:10:41.684Z,2.20
2023-05-13T21:16:45.032Z,2.67
2023-05-13T21:22:49.290Z,2.50
2023-05-13T21:28:52.737Z,2.08
2023-05-13T21:34:57.777Z,2.73
2023-05-13T21:41:03.100Z,2.80
2023-05-13T21:47:07.006Z,2.63
2023-05-13T21:53:09.559Z,2.70
2023-05-13T21:59:12.879Z,2.90
2023-05-13T22:05:16.348Z,2.90
2023-05-13T22:11:20.870Z,2.80
2023-05-13T22:17:23.836Z,2.63
2023-05-13T22:23:29.532Z,2.53
2023-05-13T22:29:32.355Z,2.95
2023-05-13T22:35:37.508Z,2.95
2023-05-13T22:41:41.219Z,3.10
2023-05-13T22:47:43.791Z,2.30
2023-05-13T22:53:47.216Z,2.78
2023-05-13T22:59:50.101Z,2.70
2023-05-13T23:05:53.489Z,3.10
2023-05-13T23:11:59.576Z,3.23
2023-05-13T23:18:02.257Z,2.88
2023-05-13T23:24:06.054Z,2.97
2023-05-13T23:30:10.041Z,3.50
2023-05-13T23:36:13.590Z,3.25
2023-05-13T23:42:18.012Z,3.03
2023-05-13T23:54:24.064Z,2.83
